Portada
METAR-TAF:

METAR-TAF

Aeroports :

Tinian, Illes Mariannes, Estats Units d'Amèrica

latitud: 14-59N, longitud: 145-37E, altitud: 82 m

Observació

L'informe es va fer fa 24 minuts, a les 08:50 UTC
Vent 3 kt del Est
Temperatura 27°C
Humitat 84%
Pressió 1011 hPa
Visibilitat: 11.3 km
Núvols disperses a una alçada de 1600 ft

METAR: PGWT 120850Z 09003KT 7SM SCT016 27/24 A2984

Hora: 19:14 (09:14 UTC)

Pronòstic

L'informe es va fer fa 3 hores i 41 minuts, a les 05:33 UTC
Pronòstic vàlid del 12 a les 06 UTC al 13 a les 06 UTC
Vent 11 kt del Est
Visibilitat: 10 km
Núvols disperses a una alçada de 1600 ft
Núvols disperses a una alçada de 5000 ft
xàfecs en les proximitats

TAF: PGWT 120533Z 1206/1306 10011KT P6SM VCSH SCT016 SCT050

Observacions i pronòstics meteorològics de més de 4000 aeroports (METAR i TAF).

Les estacions disponibles són els punts grocs i vermells al mapa.

Posi el ratolí al punt desitjat per veure el nom de l'estació.

Feu clic per veure les observacions i els pronòstics meteorològics.

Per canviar el mapa: feu clic els botons verds amb una creu de color negre per apropar; al botó verd amb un guió per allunyar la imatge; o en les fletxes verdes per a mapes adjacents.


METAR-TAF: